sensor_id;sensor_type;location;lat;lon;timestamp;temperature;humidity
5128;DHT22;2582;48.770;9.190;2024-03-23T00:55:32;11.90;99.90
5128;DHT22;2582;48.770;9.190;2024-03-23T00:57:58;12.00;99.90
5128;DHT22;2582;48.770;9.190;2024-03-23T01:00:23;12.10;99.90
5128;DHT22;2582;48.770;9.190;2024-03-23T01:02:49;12.00;99.90
5128;DHT22;2582;48.770;9.190;2024-03-23T01:05:14;12.10;99.90
5128;DHT22;2582;48.770;9.190;2024-03-23T01:07:40;12.20;99.90
5128;DHT22;2582;48.770;9.190;2024-03-23T01:10:06;12.30;99.90
5128;DHT22;2582;48.770;9.190;2024-03-23T01:12:31;12.40;99.90
5128;DHT22;2582;48.770;9.190;2024-03-23T01:14:57;12.50;99.90
5128;DHT22;2582;48.770;9.190;2024-03-23T01:17:22;12.20;99.90
5128;DHT22;2582;48.770;9.190;2024-03-23T01:19:48;12.20;99.90
5128;DHT22;2582;48.770;9.190;2024-03-23T01:22:13;12.20;99.90
5128;DHT22;2582;48.770;9.190;2024-03-23T01:24:39;12.50;99.90
5128;DHT22;2582;48.770;9.190;2024-03-23T01:27:05;12.40;99.90
5128;DHT22;2582;48.770;9.190;2024-03-23T01:29:30;12.30;99.90
5128;DHT22;2582;48.770;9.190;2024-03-23T01:31:56;12.40;99.90
5128;DHT22;2582;48.770;9.190;2024-03-23T01:34:21;12.50;99.90
5128;DHT22;2582;48.770;9.190;2024-03-23T01:36:47;12.60;99.90
5128;DHT22;2582;48.770;9.190;2024-03-23T01:39:13;12.80;99.90
5128;DHT22;2582;48.770;9.190;2024-03-23T01:41:40;13.00;99.90
5128;DHT22;2582;48.770;9.190;2024-03-23T01:44:08;13.10;99.90
5128;DHT22;2582;48.770;9.190;2024-03-23T01:46:37;13.10;99.90
5128;DHT22;2582;48.770;9.190;2024-03-23T01:49:04;13.10;99.90
5128;DHT22;2582;48.770;9.190;2024-03-23T01:51:30;13.10;99.90
5128;DHT22;2582;48.770;9.190;2024-03-23T01:53:57;13.20;99.90
5128;DHT22;2582;48.770;9.190;2024-03-23T01:56:23;13.20;99.90
5128;DHT22;2582;48.770;9.190;2024-03-23T01:58:48;13.20;99.90
5128;DHT22;2582;48.770;9.190;2024-03-23T02:01:14;13.30;99.90
5128;DHT22;2582;48.770;9.190;2024-03-23T02:03:39;13.50;99.90
5128;DHT22;2582;48.770;9.190;2024-03-23T02:06:05;13.50;99.90
5128;DHT22;2582;48.770;9.190;2024-03-23T02:08:32;13.40;99.90
5128;DHT22;2582;48.770;9.190;2024-03-23T02:10:58;13.40;99.90
5128;DHT22;2582;48.770;9.190;2024-03-23T02:13:24;13.40;99.90
5128;DHT22;2582;48.770;9.190;2024-03-23T02:15:49;13.40;99.90
5128;DHT22;2582;48.770;9.190;2024-03-23T02:18:15;13.40;99.90
5128;DHT22;2582;48.770;9.190;2024-03-23T02:20:40;13.40;99.90
5128;DHT22;2582;48.770;9.190;2024-03-23T02:23:13;13.40;99.90
5128;DHT22;2582;48.770;9.190;2024-03-23T02:25:38;13.40;99.90
5128;DHT22;2582;48.770;9.190;2024-03-23T02:28:04;13.50;99.90
5128;DHT22;2582;48.770;9.190;2024-03-23T02:30:30;13.20;99.90
5128;DHT22;2582;48.770;9.190;2024-03-23T02:32:56;13.30;99.90
5128;DHT22;2582;48.770;9.190;2024-03-23T02:35:21;13.10;99.90
5128;DHT22;2582;48.770;9.190;2024-03-23T02:37:47;13.20;99.90
5128;DHT22;2582;48.770;9.190;2024-03-23T02:40:16;13.20;99.90
5128;DHT22;2582;48.770;9.190;2024-03-23T02:42:41;13.30;99.90
5128;DHT22;2582;48.770;9.190;2024-03-23T02:45:07;13.30;99.90
5128;DHT22;2582;48.770;9.190;2024-03-23T02:47:33;13.30;99.90
5128;DHT22;2582;48.770;9.190;2024-03-23T02:49:59;13.30;99.90
5128;DHT22;2582;48.770;9.190;2024-03-23T02:52:24;13.20;99.90
5128;DHT22;2582;48.770;9.190;2024-03-23T02:54:50;13.20;99.90
5128;DHT22;2582;48.770;9.190;2024-03-23T02:57:15;13.20;99.90
5128;DHT22;2582;48.770;9.190;2024-03-23T02:59:41;13.20;99.90
5128;DHT22;2582;48.770;9.190;2024-03-23T03:02:07;13.10;99.90
5128;DHT22;2582;48.770;9.190;2024-03-23T03:04:32;13.00;99.90
5128;DHT22;2582;48.770;9.190;2024-03-23T03:06:58;13.00;99.90
5128;DHT22;2582;48.770;9.190;2024-03-23T03:09:24;12.90;99.90
5128;DHT22;2582;48.770;9.190;2024-03-23T03:11:49;13.00;99.90
5128;DHT22;2582;48.770;9.190;2024-03-23T03:14:15;12.90;99.90
5128;DHT22;2582;48.770;9.190;2024-03-23T03:16:41;12.90;99.90
5128;DHT22;2582;48.770;9.190;2024-03-23T03:19:06;12.80;99.90
5128;DHT22;2582;48.770;9.190;2024-03-23T03:21:32;12.90;99.90
5128;DHT22;2582;48.770;9.190;2024-03-23T03:23:58;12.90;99.90
5128;DHT22;2582;48.770;9.190;2024-03-23T03:26:23;12.90;99.90
5128;DHT22;2582;48.770;9.190;2024-03-23T03:28:50;12.80;99.90
5128;DHT22;2582;48.770;9.190;2024-03-23T03:31:16;12.80;99.90
5128;DHT22;2582;48.770;9.190;2024-03-23T03:33:42;12.90;99.90
5128;DHT22;2582;48.770;9.190;2024-03-23T03:36:08;12.90;99.90
5128;DHT22;2582;48.770;9.190;2024-03-23T03:38:34;12.80;99.90
5128;DHT22;2582;48.770;9.190;2024-03-23T03:41:03;12.90;99.90
5128;DHT22;2582;48.770;9.190;2024-03-23T03:43:29;12.90;99.90
5128;DHT22;2582;48.770;9.190;2024-03-23T03:45:56;12.90;99.90
5128;DHT22;2582;48.770;9.190;2024-03-23T03:48:22;13.00;99.90
5128;DHT22;2582;48.770;9.190;2024-03-23T03:50:48;12.90;99.90
5128;DHT22;2582;48.770;9.190;2024-03-23T03:53:13;12.90;99.90
5128;DHT22;2582;48.770;9.190;2024-03-23T03:55:39;13.00;99.90
5128;DHT22;2582;48.770;9.190;2024-03-23T03:58:05;13.10;99.90
5128;DHT22;2582;48.770;9.190;2024-03-23T04:00:31;13.00;99.90
5128;DHT22;2582;48.770;9.190;2024-03-23T04:02:56;12.80;99.90
5128;DHT22;2582;48.770;9.190;2024-03-23T04:05:22;12.80;99.90
5128;DHT22;2582;48.770;9.190;2024-03-23T04:07:48;12.80;99.90
5128;DHT22;2582;48.770;9.190;2024-03-23T04:10:14;12.70;99.90
5128;DHT22;2582;48.770;9.190;2024-03-23T04:12:40;12.60;99.90
5128;DHT22;2582;48.770;9.190;2024-03-23T04:15:06;12.60;99.90
5128;DHT22;2582;48.770;9.190;2024-03-23T04:17:32;12.50;99.90
5128;DHT22;2582;48.770;9.190;2024-03-23T04:20:00;12.60;99.90
5128;DHT22;2582;48.770;9.190;2024-03-23T04:22:27;12.50;99.90
5128;DHT22;2582;48.770;9.190;2024-03-23T04:24:56;12.60;99.90
5128;DHT22;2582;48.770;9.190;2024-03-23T04:27:22;12.60;99.90
5128;DHT22;2582;48.770;9.190;2024-03-23T04:29:49;12.60;99.90
5128;DHT22;2582;48.770;9.190;2024-03-23T04:32:15;12.60;99.90
5128;DHT22;2582;48.770;9.190;2024-03-23T04:34:40;12.80;99.90
5128;DHT22;2582;48.770;9.190;2024-03-23T04:37:06;12.90;99.90
5128;DHT22;2582;48.770;9.190;2024-03-23T04:39:33;12.80;99.90
5128;DHT22;2582;48.770;9.190;2024-03-23T04:41:58;12.60;99.90
5128;DHT22;2582;48.770;9.190;2024-03-23T04:44:24;12.70;99.90
5128;DHT22;2582;48.770;9.190;2024-03-23T04:46:49;12.80;99.90
5128;DHT22;2582;48.770;9.190;2024-03-23T04:49:15;12.80;99.90
5128;DHT22;2582;48.770;9.190;2024-03-23T04:51:41;12.80;99.90
5128;DHT22;2582;48.770;9.190;2024-03-23T04:54:14;12.90;99.90
5128;DHT22;2582;48.770;9.190;2024-03-23T04:56:40;12.90;99.90
5128;DHT22;2582;48.770;9.190;2024-03-23T04:59:06;12.90;99.90
5128;DHT22;2582;48.770;9.190;2024-03-23T05:01:32;12.70;99.90
5128;DHT22;2582;48.770;9.190;2024-03-23T05:03:58;12.60;99.90
5128;DHT22;2582;48.770;9.190;2024-03-23T05:06:24;12.70;99.90
5128;DHT22;2582;48.770;9.190;2024-03-23T05:08:50;12.70;99.90
5128;DHT22;2582;48.770;9.190;2024-03-23T05:11:16;12.50;99.90
5128;DHT22;2582;48.770;9.190;2024-03-23T05:13:43;12.40;99.90
5128;DHT22;2582;48.770;9.190;2024-03-23T05:16:08;12.20;99.90
5128;DHT22;2582;48.770;9.190;2024-03-23T05:18:34;12.20;99.90
5128;DHT22;2582;48.770;9.190;2024-03-23T05:21:00;12.20;99.90
5128;DHT22;2582;48.770;9.190;2024-03-23T05:23:27;12.20;99.90
5128;DHT22;2582;48.770;9.190;2024-03-23T05:25:53;12.00;99.90
5128;DHT22;2582;48.770;9.190;2024-03-23T05:28:18;11.90;99.90
5128;DHT22;2582;48.770;9.190;2024-03-23T05:30:49;11.80;99.90
5128;DHT22;2582;48.770;9.190;2024-03-23T05:33:15;11.60;99.90
5128;DHT22;2582;48.770;9.190;2024-03-23T05:35:40;11.60;99.90
5128;DHT22;2582;48.770;9.190;2024-03-23T05:38:06;11.50;99.90
5128;DHT22;2582;48.770;9.190;2024-03-23T05:40:31;11.60;99.90
5128;DHT22;2582;48.770;9.190;2024-03-23T05:42:57;11.50;99.90
5128;DHT22;2582;48.770;9.190;2024-03-23T05:45:23;11.60;99.90
5128;DHT22;2582;48.770;9.190;2024-03-23T05:47:48;11.70;99.90
5128;DHT22;2582;48.770;9.190;2024-03-23T05:50:14;11.50;99.90
5128;DHT22;2582;48.770;9.190;2024-03-23T05:52:40;11.60;99.90
5128;DHT22;2582;48.770;9.190;2024-03-23T05:55:06;11.60;99.90
5128;DHT22;2582;48.770;9.190;2024-03-23T05:57:32;11.50;99.90
5128;DHT22;2582;48.770;9.190;2024-03-23T05:59:57;11.40;99.90
5128;DHT22;2582;48.770;9.190;2024-03-23T06:02:24;11.30;99.90
5128;DHT22;2582;48.770;9.190;2024-03-23T06:04:49;11.10;99.90
5128;DHT22;2582;48.770;9.190;2024-03-23T06:07:15;10.90;99.90
5128;DHT22;2582;48.770;9.190;2024-03-23T06:09:41;10.90;99.90
5128;DHT22;2582;48.770;9.190;2024-03-23T06:12:07;10.80;99.90
5128;DHT22;2582;48.770;9.190;2024-03-23T06:14:34;10.90;99.90
5128;DHT22;2582;48.770;9.190;2024-03-23T06:17:00;10.90;99.90
5128;DHT22;2582;48.770;9.190;2024-03-23T06:19:27;10.90;99.90
5128;DHT22;2582;48.770;9.190;2024-03-23T06:21:56;10.90;99.90
5128;DHT22;2582;48.770;9.190;2024-03-23T06:24:24;10.90;99.90
5128;DHT22;2582;48.770;9.190;2024-03-23T06:26:50;10.90;99.90
5128;DHT22;2582;48.770;9.190;2024-03-23T06:29:15;10.90;99.90
5128;DHT22;2582;48.770;9.190;2024-03-23T06:31:41;10.90;99.90
5128;DHT22;2582;48.770;9.190;2024-03-23T06:34:06;10.80;99.90
5128;DHT22;2582;48.770;9.190;2024-03-23T06:36:32;10.70;99.90
5128;DHT22;2582;48.770;9.190;2024-03-23T06:38:58;10.70;99.90
5128;DHT22;2582;48.770;9.190;2024-03-23T06:41:24;10.70;99.90
5128;DHT22;2582;48.770;9.190;2024-03-23T06:43:50;10.80;99.90
5128;DHT22;2582;48.770;9.190;2024-03-23T06:46:15;10.70;99.90
5128;DHT22;2582;48.770;9.190;2024-03-23T06:48:41;10.60;99.90
5128;DHT22;2582;48.770;9.190;2024-03-23T06:51:07;10.60;99.90
5128;DHT22;2582;48.770;9.190;2024-03-23T06:53:32;10.60;99.90
5128;DHT22;2582;48.770;9.190;2024-03-23T06:55:58;10.60;99.90
5128;DHT22;2582;48.770;9.190;2024-03-23T06:58:24;10.40;99.90
5128;DHT22;2582;48.770;9.190;2024-03-23T07:00:50;10.40;99.90
5128;DHT22;2582;48.770;9.190;2024-03-23T07:03:19;10.40;99.90
5128;DHT22;2582;48.770;9.190;2024-03-23T07:05:45;10.50;99.90
5128;DHT22;2582;48.770;9.190;2024-03-23T07:08:11;10.40;99.90
5128;DHT22;2582;48.770;9.190;2024-03-23T07:10:40;10.40;99.90
5128;DHT22;2582;48.770;9.190;2024-03-23T07:13:05;10.40;99.90
5128;DHT22;2582;48.770;9.190;2024-03-23T07:15:31;10.50;99.90
5128;DHT22;2582;48.770;9.190;2024-03-23T07:17:57;10.40;99.90
5128;DHT22;2582;48.770;9.190;2024-03-23T07:20:22;10.40;99.90
5128;DHT22;2582;48.770;9.190;2024-03-23T07:22:48;10.50;99.90
5128;DHT22;2582;48.770;9.190;2024-03-23T07:25:14;10.30;99.90
5128;DHT22;2582;48.770;9.190;2024-03-23T07:27:39;10.30;99.90
5128;DHT22;2582;48.770;9.190;2024-03-23T07:30:06;10.30;99.90
5128;DHT22;2582;48.770;9.190;2024-03-23T07:32:32;10.30;99.90
5128;DHT22;2582;48.770;9.190;2024-03-23T07:34:57;10.50;99.90
5128;DHT22;2582;48.770;9.190;2024-03-23T07:37:23;10.50;99.90
5128;DHT22;2582;48.770;9.190;2024-03-23T07:39:48;10.60;99.90
5128;DHT22;2582;48.770;9.190;2024-03-23T07:42:14;10.70;99.90
5128;DHT22;2582;48.770;9.190;2024-03-23T07:44:40;10.50;99.90
5128;DHT22;2582;48.770;9.190;2024-03-23T07:47:05;10.60;99.90
5128;DHT22;2582;48.770;9.190;2024-03-23T07:49:31;10.60;99.90
5128;DHT22;2582;48.770;9.190;2024-03-23T07:51:56;10.50;99.90
5128;DHT22;2582;48.770;9.190;2024-03-23T07:54:22;10.40;99.90
5128;DHT22;2582;48.770;9.190;2024-03-23T07:56:47;10.40;99.90
5128;DHT22;2582;48.770;9.190;2024-03-23T07:59:13;10.20;99.90
5128;DHT22;2582;48.770;9.190;2024-03-23T08:01:38;9.90;99.90
5128;DHT22;2582;48.770;9.190;2024-03-23T08:04:06;9.70;99.90
5128;DHT22;2582;48.770;9.190;2024-03-23T08:06:31;9.70;99.90
5128;DHT22;2582;48.770;9.190;2024-03-23T08:08:57;9.50;99.90
5128;DHT22;2582;48.770;9.190;2024-03-23T08:11:26;9.40;99.90
5128;DHT22;2582;48.770;9.190;2024-03-23T08:13:53;9.30;99.90
5128;DHT22;2582;48.770;9.190;2024-03-23T08:16:19;9.30;99.90
5128;DHT22;2582;48.770;9.190;2024-03-23T08:18:44;9.40;99.90
5128;DHT22;2582;48.770;9.190;2024-03-23T08:21:10;9.40;99.90
5128;DHT22;2582;48.770;9.190;2024-03-23T08:23:36;9.60;99.90
5128;DHT22;2582;48.770;9.190;2024-03-23T08:26:07;9.70;99.90
5128;DHT22;2582;48.770;9.190;2024-03-23T08:28:34;9.90;99.90
5128;DHT22;2582;48.770;9.190;2024-03-23T08:31:05;10.00;99.90
5128;DHT22;2582;48.770;9.190;2024-03-23T08:33:31;9.90;99.90
5128;DHT22;2582;48.770;9.190;2024-03-23T08:36:01;10.00;99.90
5128;DHT22;2582;48.770;9.190;2024-03-23T08:38:27;10.00;99.90
5128;DHT22;2582;48.770;9.190;2024-03-23T08:41:11;9.90;99.90
5128;DHT22;2582;48.770;9.190;2024-03-23T08:43:40;9.90;99.90
5128;DHT22;2582;48.770;9.190;2024-03-23T08:46:16;9.90;99.90
5128;DHT22;2582;48.770;9.190;2024-03-23T08:48:43;9.90;99.90
5128;DHT22;2582;48.770;9.190;2024-03-23T08:51:11;10.00;99.90
5128;DHT22;2582;48.770;9.190;2024-03-23T08:53:38;10.20;99.90
5128;DHT22;2582;48.770;9.190;2024-03-23T08:56:04;10.10;99.90
5128;DHT22;2582;48.770;9.190;2024-03-23T08:58:32;10.00;99.90
5128;DHT22;2582;48.770;9.190;2024-03-23T09:01:09;10.00;99.90
5128;DHT22;2582;48.770;9.190;2024-03-23T09:03:36;10.00;99.90
5128;DHT22;2582;48.770;9.190;2024-03-23T09:06:09;10.30;99.90
5128;DHT22;2582;48.770;9.190;2024-03-23T09:08:35;10.50;99.90
5128;DHT22;2582;48.770;9.190;2024-03-23T09:11:11;10.60;99.90
5128;DHT22;2582;48.770;9.190;2024-03-23T09:13:45;10.50;99.90
5128;DHT22;2582;48.770;9.190;2024-03-23T09:16:14;10.50;99.90
5128;DHT22;2582;48.770;9.190;2024-03-23T09:18:40;10.40;99.90
5128;DHT22;2582;48.770;9.190;2024-03-23T09:21:12;10.40;99.90
5128;DHT22;2582;48.770;9.190;2024-03-23T09:23:39;10.40;99.90
5128;DHT22;2582;48.770;9.190;2024-03-23T09:26:05;10.40;99.90
5128;DHT22;2582;48.770;9.190;2024-03-23T09:28:32;10.20;99.90
5128;DHT22;2582;48.770;9.190;2024-03-23T09:31:08;10.20;99.90
5128;DHT22;2582;48.770;9.190;2024-03-23T09:33:35;10.30;99.90
5128;DHT22;2582;48.770;9.190;2024-03-23T09:36:04;10.30;99.90
5128;DHT22;2582;48.770;9.190;2024-03-23T09:38:30;10.30;99.90
5128;DHT22;2582;48.770;9.190;2024-03-23T09:40:57;10.40;99.90
5128;DHT22;2582;48.770;9.190;2024-03-23T09:43:23;10.60;99.90
5128;DHT22;2582;48.770;9.190;2024-03-23T09:45:49;10.80;99.90
5128;DHT22;2582;48.770;9.190;2024-03-23T09:48:15;11.00;99.90
5128;DHT22;2582;48.770;9.190;2024-03-23T09:50:42;10.90;99.90
5128;DHT22;2582;48.770;9.190;2024-03-23T09:53:10;10.90;99.90
5128;DHT22;2582;48.770;9.190;2024-03-23T09:55:37;10.90;99.90
5128;DHT22;2582;48.770;9.190;2024-03-23T09:58:03;10.90;99.90
5128;DHT22;2582;48.770;9.190;2024-03-23T10:00:30;10.90;99.90
5128;DHT22;2582;48.770;9.190;2024-03-23T10:02:57;11.00;99.90
5128;DHT22;2582;48.770;9.190;2024-03-23T10:05:30;10.90;99.90
5128;DHT22;2582;48.770;9.190;2024-03-23T10:08:18;10.80;99.90
5128;DHT22;2582;48.770;9.190;2024-03-23T10:10:45;10.80;99.90
5128;DHT22;2582;48.770;9.190;2024-03-23T10:13:23;10.90;99.90
5128;DHT22;2582;48.770;9.190;2024-03-23T10:15:55;10.90;99.90
5128;DHT22;2582;48.770;9.190;2024-03-23T10:18:21;11.00;99.90
5128;DHT22;2582;48.770;9.190;2024-03-23T10:21:07;11.10;99.90
5128;DHT22;2582;48.770;9.190;2024-03-23T10:23:38;11.00;99.90
5128;DHT22;2582;48.770;9.190;2024-03-23T10:26:21;10.90;99.90
5128;DHT22;2582;48.770;9.190;2024-03-23T10:31:18;10.80;99.90
5128;DHT22;2582;48.770;9.190;2024-03-23T10:33:45;11.10;99.90
5128;DHT22;2582;48.770;9.190;2024-03-23T10:36:12;11.30;99.90
5128;DHT22;2582;48.770;9.190;2024-03-23T10:38:42;11.30;99.90
5128;DHT22;2582;48.770;9.190;2024-03-23T10:41:09;11.10;99.90
5128;DHT22;2582;48.770;9.190;2024-03-23T10:43:38;10.90;99.90
5128;DHT22;2582;48.770;9.190;2024-03-23T10:46:04;10.80;99.90
5128;DHT22;2582;48.770;9.190;2024-03-23T10:48:31;10.90;99.90
5128;DHT22;2582;48.770;9.190;2024-03-23T10:50:57;11.10;99.90
5128;DHT22;2582;48.770;9.190;2024-03-23T10:53:26;10.80;99.90
5128;DHT22;2582;48.770;9.190;2024-03-23T10:55:52;10.30;99.90
5128;DHT22;2582;48.770;9.190;2024-03-23T10:58:23;10.00;99.90
5128;DHT22;2582;48.770;9.190;2024-03-23T11:00:50;9.10;99.90
5128;DHT22;2582;48.770;9.190;2024-03-23T11:03:35;8.90;99.90
5128;DHT22;2582;48.770;9.190;2024-03-23T11:06:05;8.40;99.90
5128;DHT22;2582;48.770;9.190;2024-03-23T11:08:34;8.10;99.90
5128;DHT22;2582;48.770;9.190;2024-03-23T11:11:22;7.80;99.90
5128;DHT22;2582;48.770;9.190;2024-03-23T11:13:52;7.70;99.90
5128;DHT22;2582;48.770;9.190;2024-03-23T11:16:23;7.70;99.90
5128;DHT22;2582;48.770;9.190;2024-03-23T11:18:50;7.90;99.90
5128;DHT22;2582;48.770;9.190;2024-03-23T11:21:54;8.40;99.90
5128;DHT22;2582;48.770;9.190;2024-03-23T11:24:20;9.00;99.90
5128;DHT22;2582;48.770;9.190;2024-03-23T11:26:46;9.20;99.90
5128;DHT22;2582;48.770;9.190;2024-03-23T11:29:14;9.20;99.90
5128;DHT22;2582;48.770;9.190;2024-03-23T11:31:49;9.50;99.90
5128;DHT22;2582;48.770;9.190;2024-03-23T11:34:16;10.20;99.90
5128;DHT22;2582;48.770;9.190;2024-03-23T11:36:44;10.80;99.90
5128;DHT22;2582;48.770;9.190;2024-03-23T11:41:50;10.70;99.90
5128;DHT22;2582;48.770;9.190;2024-03-23T11:44:23;10.30;99.90
5128;DHT22;2582;48.770;9.190;2024-03-23T11:46:49;10.80;99.90
5128;DHT22;2582;48.770;9.190;2024-03-23T11:49:26;12.20;99.90
5128;DHT22;2582;48.770;9.190;2024-03-23T11:51:53;14.20;99.90
5128;DHT22;2582;48.770;9.190;2024-03-23T11:54:26;14.30;99.90
5128;DHT22;2582;48.770;9.190;2024-03-23T11:56:59;14.00;99.90
5128;DHT22;2582;48.770;9.190;2024-03-23T11:59:38;13.60;99.90
5128;DHT22;2582;48.770;9.190;2024-03-23T12:02:10;13.20;99.90
5128;DHT22;2582;48.770;9.190;2024-03-23T12:04:37;12.80;99.90
5128;DHT22;2582;48.770;9.190;2024-03-23T12:07:19;12.30;99.90
5128;DHT22;2582;48.770;9.190;2024-03-23T12:09:47;11.80;99.90
5128;DHT22;2582;48.770;9.190;2024-03-23T12:12:17;11.60;99.90
5128;DHT22;2582;48.770;9.190;2024-03-23T12:15:07;11.90;99.90
5128;DHT22;2582;48.770;9.190;2024-03-23T12:17:34;12.00;99.90
5128;DHT22;2582;48.770;9.190;2024-03-23T12:20:00;11.80;99.90
5128;DHT22;2582;48.770;9.190;2024-03-23T12:22:26;11.80;99.90
5128;DHT22;2582;48.770;9.190;2024-03-23T12:24:52;11.50;99.90
5128;DHT22;2582;48.770;9.190;2024-03-23T12:27:18;11.60;99.90
5128;DHT22;2582;48.770;9.190;2024-03-23T12:29:43;11.80;99.90
5128;DHT22;2582;48.770;9.190;2024-03-23T12:32:11;12.10;99.90
5128;DHT22;2582;48.770;9.190;2024-03-23T12:34:37;12.20;99.90
5128;DHT22;2582;48.770;9.190;2024-03-23T12:37:03;12.90;99.20
5128;DHT22;2582;48.770;9.190;2024-03-23T12:39:28;13.70;99.90
5128;DHT22;2582;48.770;9.190;2024-03-23T12:41:54;15.10;96.10
5128;DHT22;2582;48.770;9.190;2024-03-23T12:44:20;15.40;95.60
5128;DHT22;2582;48.770;9.190;2024-03-23T12:46:46;14.20;94.70
5128;DHT22;2582;48.770;9.190;2024-03-23T12:49:11;13.60;95.90
5128;DHT22;2582;48.770;9.190;2024-03-23T12:51:37;13.00;96.70
5128;DHT22;2582;48.770;9.190;2024-03-23T12:54:03;12.50;98.20
5128;DHT22;2582;48.770;9.190;2024-03-23T12:56:29;12.30;98.30
5128;DHT22;2582;48.770;9.190;2024-03-23T12:58:55;12.30;98.80
5128;DHT22;2582;48.770;9.190;2024-03-23T13:01:25;11.80;99.00
5128;DHT22;2582;48.770;9.190;2024-03-23T13:03:51;11.70;98.90
5128;DHT22;2582;48.770;9.190;2024-03-23T13:06:17;12.10;99.40
5128;DHT22;2582;48.770;9.190;2024-03-23T13:08:47;12.40;99.30
5128;DHT22;2582;48.770;9.190;2024-03-23T13:11:13;13.40;98.50
5128;DHT22;2582;48.770;9.190;2024-03-23T13:13:40;14.50;96.90
5128;DHT22;2582;48.770;9.190;2024-03-23T13:16:07;14.40;95.60
5128;DHT22;2582;48.770;9.190;2024-03-23T13:18:33;13.50;95.90
5128;DHT22;2582;48.770;9.190;2024-03-23T13:20:59;13.80;96.80
5128;DHT22;2582;48.770;9.190;2024-03-23T13:23:24;14.80;95.60
5128;DHT22;2582;48.770;9.190;2024-03-23T13:28:18;15.00;94.80
5128;DHT22;2582;48.770;9.190;2024-03-23T13:30:54;14.20;95.50
5128;DHT22;2582;48.770;9.190;2024-03-23T13:33:20;14.20;94.90
5128;DHT22;2582;48.770;9.190;2024-03-23T13:35:53;13.50;95.10
5128;DHT22;2582;48.770;9.190;2024-03-23T13:38:19;13.60;94.10
5128;DHT22;2582;48.770;9.190;2024-03-23T13:40:55;13.90;94.00
5128;DHT22;2582;48.770;9.190;2024-03-23T13:43:22;14.30;95.00
5128;DHT22;2582;48.770;9.190;2024-03-23T13:45:48;15.10;90.80
5128;DHT22;2582;48.770;9.190;2024-03-23T13:48:16;16.80;88.10
5128;DHT22;2582;48.770;9.190;2024-03-23T13:50:43;17.70;79.80
5128;DHT22;2582;48.770;9.190;2024-03-23T13:53:08;17.30;73.50
5128;DHT22;2582;48.770;9.190;2024-03-23T13:55:34;17.00;74.00
5128;DHT22;2582;48.770;9.190;2024-03-23T13:58:00;17.20;73.20
5128;DHT22;2582;48.770;9.190;2024-03-23T14:00:25;17.80;70.00
5128;DHT22;2582;48.770;9.190;2024-03-23T14:02:51;18.20;71.10
5128;DHT22;2582;48.770;9.190;2024-03-23T14:05:16;17.90;69.70
5128;DHT22;2582;48.770;9.190;2024-03-23T14:07:42;17.10;71.60
5128;DHT22;2582;48.770;9.190;2024-03-23T14:10:08;15.20;76.20
5128;DHT22;2582;48.770;9.190;2024-03-23T14:12:36;14.50;81.70
5128;DHT22;2582;48.770;9.190;2024-03-23T14:15:05;13.10;90.10
5128;DHT22;2582;48.770;9.190;2024-03-23T14:17:31;11.50;97.80
5128;DHT22;2582;48.770;9.190;2024-03-23T14:19:56;10.30;99.90
5128;DHT22;2582;48.770;9.190;2024-03-23T14:22:29;9.70;99.90
5128;DHT22;2582;48.770;9.190;2024-03-23T14:24:54;8.80;99.90
5128;DHT22;2582;48.770;9.190;2024-03-23T14:27:20;8.60;99.90
5128;DHT22;2582;48.770;9.190;2024-03-23T14:29:47;8.50;99.90
5128;DHT22;2582;48.770;9.190;2024-03-23T14:32:12;8.70;99.90
5128;DHT22;2582;48.770;9.190;2024-03-23T14:34:38;9.50;99.90
5128;DHT22;2582;48.770;9.190;2024-03-23T14:37:04;9.90;99.90
5128;DHT22;2582;48.770;9.190;2024-03-23T14:39:30;11.40;99.90
5128;DHT22;2582;48.770;9.190;2024-03-23T14:41:56;13.30;99.90
5128;DHT22;2582;48.770;9.190;2024-03-23T14:44:22;14.80;99.90
5128;DHT22;2582;48.770;9.190;2024-03-23T14:46:49;14.70;99.90
5128;DHT22;2582;48.770;9.190;2024-03-23T14:49:15;15.20;99.90
5128;DHT22;2582;48.770;9.190;2024-03-23T14:51:43;16.60;99.90
5128;DHT22;2582;48.770;9.190;2024-03-23T14:54:08;15.50;98.10
5128;DHT22;2582;48.770;9.190;2024-03-23T14:56:34;14.90;99.90
5128;DHT22;2582;48.770;9.190;2024-03-23T14:59:00;13.90;99.90
5128;DHT22;2582;48.770;9.190;2024-03-23T15:01:26;12.90;99.90
5128;DHT22;2582;48.770;9.190;2024-03-23T15:03:51;11.90;99.90
5128;DHT22;2582;48.770;9.190;2024-03-23T15:06:19;11.00;99.90
5128;DHT22;2582;48.770;9.190;2024-03-23T15:08:44;10.50;99.90
5128;DHT22;2582;48.770;9.190;2024-03-23T15:11:10;10.10;99.90
5128;DHT22;2582;48.770;9.190;2024-03-23T15:13:37;10.30;99.90
5128;DHT22;2582;48.770;9.190;2024-03-23T15:16:03;10.90;99.90
5128;DHT22;2582;48.770;9.190;2024-03-23T15:18:32;11.50;99.90
5128;DHT22;2582;48.770;9.190;2024-03-23T15:21:02;13.00;99.90
5128;DHT22;2582;48.770;9.190;2024-03-23T15:23:29;14.30;99.90
5128;DHT22;2582;48.770;9.190;2024-03-23T15:25:58;14.80;99.00
5128;DHT22;2582;48.770;9.190;2024-03-23T15:28:24;15.80;97.70
5128;DHT22;2582;48.770;9.190;2024-03-23T15:30:53;17.20;94.30
5128;DHT22;2582;48.770;9.190;2024-03-23T15:33:18;17.40;93.10
5128;DHT22;2582;48.770;9.190;2024-03-23T15:35:44;18.40;90.60
5128;DHT22;2582;48.770;9.190;2024-03-23T15:38:10;18.30;87.40
5128;DHT22;2582;48.770;9.190;2024-03-23T15:40:36;17.20;90.00
5128;DHT22;2582;48.770;9.190;2024-03-23T15:43:01;17.00;90.10
5128;DHT22;2582;48.770;9.190;2024-03-23T15:45:27;17.10;90.20
5128;DHT22;2582;48.770;9.190;2024-03-23T15:47:52;15.90;90.20
5128;DHT22;2582;48.770;9.190;2024-03-23T15:50:18;15.40;91.30
5128;DHT22;2582;48.770;9.190;2024-03-23T15:52:43;15.10;92.00
5128;DHT22;2582;48.770;9.190;2024-03-23T15:55:09;14.50;92.10
5128;DHT22;2582;48.770;9.190;2024-03-23T15:57:35;13.90;92.60
5128;DHT22;2582;48.770;9.190;2024-03-23T16:00:02;13.10;94.30
5128;DHT22;2582;48.770;9.190;2024-03-23T16:02:28;12.50;95.60
5128;DHT22;2582;48.770;9.190;2024-03-23T16:04:54;12.40;97.30
5128;DHT22;2582;48.770;9.190;2024-03-23T16:07:21;12.30;97.20
5128;DHT22;2582;48.770;9.190;2024-03-23T16:09:46;12.60;97.60
5128;DHT22;2582;48.770;9.190;2024-03-23T16:12:12;12.20;98.30
5128;DHT22;2582;48.770;9.190;2024-03-23T16:14:37;11.50;98.20
5128;DHT22;2582;48.770;9.190;2024-03-23T16:17:03;11.20;99.90
5128;DHT22;2582;48.770;9.190;2024-03-23T16:19:28;10.90;99.70
5128;DHT22;2582;48.770;9.190;2024-03-23T16:21:54;10.40;99.90
5128;DHT22;2582;48.770;9.190;2024-03-23T16:24:21;10.30;99.90
5128;DHT22;2582;48.770;9.190;2024-03-23T16:26:46;10.10;99.90
5128;DHT22;2582;48.770;9.190;2024-03-23T16:29:12;9.90;99.90
5128;DHT22;2582;48.770;9.190;2024-03-23T16:31:38;9.80;99.90
5128;DHT22;2582;48.770;9.190;2024-03-23T16:34:03;9.80;99.90
5128;DHT22;2582;48.770;9.190;2024-03-23T16:36:29;9.90;99.90
5128;DHT22;2582;48.770;9.190;2024-03-23T16:38:55;9.90;99.90
5128;DHT22;2582;48.770;9.190;2024-03-23T16:41:21;10.00;99.90
5128;DHT22;2582;48.770;9.190;2024-03-23T16:43:46;10.20;99.90
5128;DHT22;2582;48.770;9.190;2024-03-23T16:46:13;10.00;99.90
5128;DHT22;2582;48.770;9.190;2024-03-23T16:48:42;9.90;99.90
5128;DHT22;2582;48.770;9.190;2024-03-23T16:51:09;9.80;99.90
5128;DHT22;2582;48.770;9.190;2024-03-23T16:53:35;9.70;99.90
5128;DHT22;2582;48.770;9.190;2024-03-23T16:56:08;9.50;99.90
5128;DHT22;2582;48.770;9.190;2024-03-23T16:58:38;9.30;99.90
5128;DHT22;2582;48.770;9.190;2024-03-23T17:01:10;9.20;99.90
5128;DHT22;2582;48.770;9.190;2024-03-23T17:03:46;9.00;99.90
5128;DHT22;2582;48.770;9.190;2024-03-23T17:06:11;8.90;99.90